Google Maps JavaScript API Example
Pilot Flight Report # 92902 Submitted by : AST775 on 2019-04-15
Date: 2019-04-15Aircraft: DeHavilland DHC6 Twin Otter - Wheeled
Flight No.: AST29727Distance (Nm): 181.85
Departure: SBGR - Guarulhos InternationalDestination: SBGL - Galeao-Antonio C Jobim International
 TimeFuelWeightSpeeds  
Out (Taxi)0922Z730 lbs9511 lbs Flight RulesVFR
Off (Takeoff)0922Z 9508 lbs85 ktsFlight Level14500
On (Landing)1031Z 8783 lbs76 ktsVSTD-173 ft/min
In (Ramp)1031Z1 lbs8783 lbs ZFW8784 lbs
Flight1.20  -  1:091 lbs  Pax0
Block1.15  -  1:091 lbs  Cargo0
Departure WeatherSBGR 140921Z 00000KT 46SM FEW031 BKN035 18/18 A3012
Destination WeatherSBGL 141031Z 00000KT 62SM FEW057 BKN393 14/4 A2992
Flight CommentsLeg 14 - SBGR - SBGL